createdAt,value
2022-08-17T00:00:15.766Z,80.41
2022-08-17T00:01:11.855Z,80.32
2022-08-17T00:02:10.933Z,80.11
2022-08-17T00:03:12.676Z,80.21
2022-08-17T00:04:12.036Z,80.41
2022-08-17T00:05:11.828Z,80.41
2022-08-17T00:06:11.696Z,80.32
2022-08-17T00:07:17.724Z,80.32
2022-08-17T00:08:11.562Z,80.02
2022-08-17T00:09:10.861Z,80.02
2022-08-17T00:10:12.320Z,80.11
2022-08-17T00:11:10.780Z,80.32
2022-08-17T00:12:42.827Z,80.32
2022-08-17T00:13:11.742Z,80.45
2022-08-17T00:14:10.599Z,80.35
2022-08-17T00:15:10.866Z,80.45
2022-08-17T00:16:10.582Z,80.45
2022-08-17T00:17:10.571Z,80.45
2022-08-17T00:19:06.969Z,80.45
2022-08-17T00:19:13.011Z,80.55
2022-08-17T00:20:10.672Z,80.65
2022-08-17T00:21:10.907Z,80.55
2022-08-17T00:22:34.027Z,80.26
2022-08-17T00:23:12.622Z,80.26
2022-08-17T00:24:10.481Z,80.05
2022-08-17T00:25:10.494Z,80.15
2022-08-17T00:26:10.452Z,80.45
2022-08-17T00:27:10.495Z,80.35
2022-08-17T00:28:10.529Z,80.26
2022-08-17T00:29:10.540Z,80.76
2022-08-17T00:30:12.495Z,80.35
2022-08-17T00:31:10.612Z,78.75
2022-08-17T00:33:15.647Z,78.96
2022-08-17T00:33:16.509Z,79.75
2022-08-17T00:34:12.074Z,79.75
2022-08-17T00:35:10.756Z,79.09
2022-08-17T00:36:10.780Z,78.16
2022-08-17T00:37:10.845Z,77.95
2022-08-17T00:38:10.881Z,77.86
2022-08-17T00:39:10.905Z,77.45
2022-08-17T00:40:10.301Z,77.95
2022-08-17T00:41:10.253Z,77.45
2022-08-17T00:42:10.253Z,77.36
2022-08-17T00:43:10.266Z,76.95
2022-08-17T00:44:10.255Z,77.36
2022-08-17T00:45:11.021Z,77.06
2022-08-17T00:46:10.213Z,77.45
2022-08-17T00:47:10.205Z,77.75
2022-08-17T00:48:29.122Z,77.95
2022-08-17T00:49:11.219Z,77.86
2022-08-17T00:50:10.159Z,77.95
2022-08-17T00:51:10.171Z,78.16
2022-08-17T00:52:10.802Z,78.36
2022-08-17T00:53:10.150Z,78.55
2022-08-17T00:54:10.174Z,78.55
2022-08-17T00:55:10.073Z,78.55
2022-08-17T00:56:10.163Z,78.55
2022-08-17T00:57:10.069Z,78.75
2022-08-17T00:58:10.119Z,78.66
2022-08-17T00:59:10.139Z,78.66
2022-08-17T01:00:10.170Z,78.66
2022-08-17T01:01:10.256Z,78.55
2022-08-17T01:02:11.707Z,78.66
2022-08-17T01:03:10.009Z,78.66
2022-08-17T01:04:09.991Z,79.46
2022-08-17T01:05:10.187Z,79.65
2022-08-17T01:06:10.160Z,79.65
2022-08-17T01:07:09.930Z,79.85
2022-08-17T01:08:09.929Z,80.15
2022-08-17T01:09:09.931Z,80.26
2022-08-17T01:10:58.881Z,80.45
2022-08-17T01:11:11.969Z,80.65
2022-08-17T01:12:09.849Z,80.79
2022-08-17T01:13:09.848Z,80.99
2022-08-17T01:14:09.859Z,80.79
2022-08-17T01:15:09.819Z,80.69
2022-08-17T01:16:09.797Z,80.99
2022-08-17T01:17:09.798Z,81.09
2022-08-17T01:18:09.772Z,81.19
2022-08-17T01:19:09.760Z,80.99
2022-08-17T01:20:09.847Z,81.09
2022-08-17T01:21:09.749Z,81.53
2022-08-17T01:22:09.719Z,81.73
2022-08-17T01:23:09.851Z,81.63
2022-08-17T01:24:10.985Z,81.63
2022-08-17T01:25:09.714Z,82.23
2022-08-17T01:26:10.166Z,82.33
2022-08-17T01:27:10.256Z,82.13
2022-08-17T01:28:09.659Z,81.63
2022-08-17T01:29:09.668Z,81.63
2022-08-17T01:30:56.840Z,82.13
2022-08-17T01:31:10.981Z,82.23
2022-08-17T01:32:09.601Z,82.03
2022-08-17T01:33:09.577Z,82.43
2022-08-17T01:34:09.570Z,82.53
2022-08-17T01:35:09.558Z,82.53
2022-08-17T01:36:09.539Z,82.53
2022-08-17T01:37:09.536Z,82.43
2022-08-17T01:38:09.560Z,82.43
2022-08-17T01:39:09.503Z,82.53
2022-08-17T01:40:09.544Z,82.63
2022-08-17T01:41:09.499Z,82.83
2022-08-17T01:42:09.482Z,82.93
2022-08-17T01:43:09.469Z,82.93
2022-08-17T01:44:09.437Z,83.03
2022-08-17T01:45:09.440Z,83.13
2022-08-17T01:46:09.418Z,83.13
2022-08-17T01:47:09.407Z,83.23
2022-08-17T01:48:09.390Z,83.27
2022-08-17T01:49:09.377Z,83.27
2022-08-17T01:50:09.368Z,83.37
2022-08-17T01:51:09.346Z,83.37
2022-08-17T01:52:09.340Z,83.57
2022-08-17T01:53:09.329Z,83.67
2022-08-17T01:54:09.298Z,83.67
2022-08-17T01:55:09.297Z,83.77
2022-08-17T01:56:09.281Z,83.77
2022-08-17T01:57:09.292Z,83.87
2022-08-17T01:58:09.254Z,84.07
2022-08-17T01:59:09.244Z,84.17
2022-08-17T02:00:09.252Z,84.17
2022-08-17T02:01:09.265Z,84.47
2022-08-17T02:02:09.231Z,83.47
2022-08-17T02:03:09.195Z,82.97
2022-08-17T02:04:09.180Z,82.67
2022-08-17T02:05:09.172Z,82.97
2022-08-17T02:06:27.186Z,82.67
2022-08-17T02:07:10.165Z,82.57
2022-08-17T02:08:09.116Z,82.47
2022-08-17T02:09:16.498Z,82.37
2022-08-17T02:10:18.971Z,82.57
2022-08-17T02:11:11.649Z,82.67
2022-08-17T02:12:38.925Z,82.57
2022-08-17T02:13:10.166Z,82.47
2022-08-17T02:14:09.071Z,82.47
2022-08-17T02:15:09.058Z,82.67
2022-08-17T02:16:09.060Z,82.77
2022-08-17T02:17:09.016Z,82.87
2022-08-17T02:18:08.995Z,82.77
2022-08-17T02:19:08.997Z,82.97
2022-08-17T02:20:08.975Z,83.47
2022-08-17T02:21:08.956Z,83.57
2022-08-17T02:22:08.961Z,83.57
2022-08-17T02:23:08.925Z,83.77
2022-08-17T02:24:08.920Z,83.77
2022-08-17T02:25:08.906Z,83.57
2022-08-17T02:26:08.891Z,83.97
2022-08-17T02:27:09.878Z,83.87
2022-08-17T02:28:08.859Z,83.91
2022-08-17T02:29:08.859Z,84.41
2022-08-17T02:30:59.195Z,84.61
2022-08-17T02:31:09.836Z,84.81
2022-08-17T02:32:08.814Z,84.51
2022-08-17T02:33:09.374Z,84.91
2022-08-17T02:34:08.786Z,84.81
2022-08-17T02:35:08.776Z,84.71
2022-08-17T02:36:08.758Z,84.61
2022-08-17T02:37:08.771Z,84.51
2022-08-17T02:38:08.737Z,84.21
2022-08-17T02:39:08.725Z,84.11
2022-08-17T02:40:08.757Z,84.01
2022-08-17T02:41:08.712Z,84.01
2022-08-17T02:42:08.679Z,84.01
2022-08-17T02:43:08.675Z,84.11
2022-08-17T02:44:08.669Z,84.21
2022-08-17T02:45:08.634Z,84.21
2022-08-17T02:46:08.625Z,84.61
2022-08-17T02:47:08.780Z,84.81
2022-08-17T02:48:08.721Z,85.01
2022-08-17T02:49:08.594Z,85.01
2022-08-17T02:50:09.537Z,84.91
2022-08-17T02:51:08.808Z,84.81
2022-08-17T02:52:09.548Z,84.91
2022-08-17T02:53:08.605Z,84.81
2022-08-17T02:54:40.017Z,84.91
2022-08-17T02:55:09.509Z,85.11
2022-08-17T02:56:08.498Z,85.41
2022-08-17T02:57:08.485Z,85.41
2022-08-17T02:58:08.484Z,85.75
2022-08-17T02:59:08.466Z,85.66
2022-08-17T03:00:08.450Z,85.85
2022-08-17T03:01:08.441Z,85.75
2022-08-17T03:02:08.548Z,85.75
2022-08-17T03:03:08.435Z,85.96
2022-08-17T03:04:08.388Z,85.85
2022-08-17T03:05:08.372Z,85.96
2022-08-17T03:06:08.374Z,85.96
2022-08-17T03:07:08.379Z,86.05
2022-08-17T03:08:11.751Z,85.96
2022-08-17T03:09:09.469Z,85.85
2022-08-17T03:10:08.323Z,85.85
2022-08-17T03:11:08.317Z,85.85
2022-08-17T03:12:08.283Z,85.96
2022-08-17T03:13:08.286Z,85.75
2022-08-17T03:14:08.258Z,85.85
2022-08-17T03:15:08.244Z,86.05
2022-08-17T03:16:08.258Z,85.96
2022-08-17T03:17:08.254Z,86.16
2022-08-17T03:18:08.211Z,86.16
2022-08-17T03:19:09.207Z,85.85
2022-08-17T03:20:08.182Z,86.16
2022-08-17T03:21:08.193Z,86.25
2022-08-17T03:22:36.059Z,86.35
2022-08-17T03:23:09.181Z,86.35
2022-08-17T03:24:08.888Z,86.05
2022-08-17T03:25:10.700Z,86.16
2022-08-17T03:26:12.265Z,86.10
2022-08-17T03:27:09.104Z,86.40
2022-08-17T03:28:08.103Z,86.40
2022-08-17T03:29:08.073Z,86.25
2022-08-17T03:30:08.044Z,86.25
2022-08-17T03:31:08.057Z,86.16
2022-08-17T03:32:08.024Z,86.16
2022-08-17T03:33:08.013Z,86.16
2022-08-17T03:34:08.011Z,86.05
2022-08-17T03:35:07.993Z,85.96
2022-08-17T03:36:07.971Z,86.16
2022-08-17T03:37:07.963Z,86.05
2022-08-17T03:38:07.945Z,85.85
2022-08-17T03:39:07.932Z,85.85
2022-08-17T03:40:07.983Z,85.96
2022-08-17T03:41:07.910Z,86.05
2022-08-17T03:42:07.920Z,86.05
2022-08-17T03:43:08.953Z,85.96
2022-08-17T03:44:07.891Z,86.05
2022-08-17T03:45:07.870Z,86.05
2022-08-17T03:46:26.892Z,86.05
2022-08-17T03:47:08.831Z,86.05
2022-08-17T03:48:07.820Z,86.05
2022-08-17T03:49:07.803Z,86.16
2022-08-17T03:50:10.347Z,86.35
2022-08-17T03:51:11.417Z,86.25
2022-08-17T03:52:08.773Z,86.35
2022-08-17T03:53:07.774Z,86.46
2022-08-17T03:54:07.808Z,86.66
2022-08-17T03:55:07.740Z,86.66
2022-08-17T03:56:07.710Z,86.66
2022-08-17T03:57:07.705Z,86.66
2022-08-17T03:58:07.693Z,86.55
2022-08-17T03:59:07.680Z,86.66
2022-08-17T04:00:08.661Z,86.66
2022-08-17T04:01:07.690Z,86.66
2022-08-17T04:02:07.724Z,86.66
2022-08-17T04:03:07.630Z,86.66
2022-08-17T04:04:07.615Z,86.55
2022-08-17T04:05:07.601Z,86.50
2022-08-17T04:06:07.600Z,86.60
2022-08-17T04:07:07.593Z,86.69
2022-08-17T04:08:07.570Z,86.69
2022-08-17T04:09:07.582Z,86.10
2022-08-17T04:10:07.558Z,85.49
2022-08-17T04:11:07.519Z,85.60
2022-08-17T04:12:07.513Z,85.69
2022-08-17T04:13:07.515Z,85.69
2022-08-17T04:14:07.493Z,85.85
2022-08-17T04:15:07.481Z,86.05
2022-08-17T04:16:07.471Z,86.16
2022-08-17T04:17:07.509Z,86.05
2022-08-17T04:18:07.695Z,86.05
2022-08-17T04:19:07.412Z,85.96
2022-08-17T04:20:07.398Z,85.96
2022-08-17T04:21:07.399Z,85.96
2022-08-17T04:22:07.380Z,86.05
2022-08-17T04:23:07.372Z,86.05
2022-08-17T04:24:07.363Z,86.05
2022-08-17T04:25:07.375Z,85.96
2022-08-17T04:26:07.327Z,85.96
2022-08-17T04:27:07.331Z,85.85
2022-08-17T04:28:07.676Z,85.75
2022-08-17T04:29:08.300Z,85.66
2022-08-17T04:30:07.451Z,85.55
2022-08-17T04:31:07.455Z,85.46
2022-08-17T04:32:07.279Z,85.41
2022-08-17T04:33:07.540Z,85.41
2022-08-17T04:34:07.261Z,85.41
2022-08-17T04:35:07.212Z,85.41
2022-08-17T04:36:07.249Z,85.31
2022-08-17T04:37:07.191Z,85.31
2022-08-17T04:38:07.187Z,85.31
2022-08-17T04:39:07.163Z,85.31
2022-08-17T04:40:07.227Z,85.17
2022-08-17T04:41:07.139Z,85.07
2022-08-17T04:42:07.121Z,84.97
2022-08-17T04:43:07.113Z,84.67
2022-08-17T04:44:07.094Z,84.77
2022-08-17T04:45:07.097Z,84.47
2022-08-17T04:46:07.078Z,84.37
2022-08-17T04:47:07.062Z,84.27
2022-08-17T04:48:07.660Z,84.03
2022-08-17T04:49:07.094Z,83.93
2022-08-17T04:50:07.034Z,83.83
2022-08-17T04:51:07.035Z,83.73
2022-08-17T04:52:07.108Z,83.63
2022-08-17T04:53:06.978Z,83.33
2022-08-17T04:54:06.968Z,83.23
2022-08-17T04:55:06.947Z,83.19
2022-08-17T04:56:06.954Z,82.99
2022-08-17T04:57:06.951Z,82.59
2022-08-17T04:58:06.911Z,82.29
2022-08-17T04:59:06.915Z,82.29
2022-08-17T05:00:06.898Z,82.49
2022-08-17T05:01:06.963Z,82.39
2022-08-17T05:02:06.855Z,82.05
2022-08-17T05:03:06.920Z,82.05
2022-08-17T05:04:21.042Z,81.95
2022-08-17T05:05:07.887Z,81.45
2022-08-17T05:06:06.863Z,80.26
2022-08-17T05:07:06.808Z,80.62
2022-08-17T05:08:06.781Z,80.41
2022-08-17T05:09:06.834Z,80.32
2022-08-17T05:10:06.779Z,79.32
2022-08-17T05:11:06.756Z,79.91
2022-08-17T05:12:06.742Z,78.02
2022-08-17T05:13:06.737Z,78.58
2022-08-17T05:14:06.708Z,78.28
2022-08-17T05:15:06.740Z,76.88
2022-08-17T05:16:06.690Z,77.38
2022-08-17T05:17:10.938Z,77.48
2022-08-17T05:18:06.671Z,77.48
2022-08-17T05:19:06.650Z,77.34
2022-08-17T05:20:06.636Z,77.44
2022-08-17T05:21:06.694Z,76.65
2022-08-17T05:22:06.625Z,76.95
2022-08-17T05:23:06.591Z,76.54
2022-08-17T05:24:16.728Z,76.65
2022-08-17T05:25:07.577Z,76.15
2022-08-17T05:26:07.903Z,75.45
2022-08-17T05:27:07.567Z,74.65
2022-08-17T05:28:06.518Z,75.05
2022-08-17T05:29:06.517Z,75.85
2022-08-17T05:30:06.567Z,76.01
2022-08-17T05:31:06.508Z,75.71
2022-08-17T05:32:38.059Z,75.41
2022-08-17T05:33:07.510Z,75.21
2022-08-17T05:34:06.490Z,75.31
2022-08-17T05:35:06.432Z,75.41
2022-08-17T05:36:06.474Z,75.31
2022-08-17T05:37:06.438Z,74.81
2022-08-17T05:38:06.429Z,73.61
2022-08-17T05:39:06.442Z,74.32
2022-08-17T05:40:06.451Z,74.02
2022-08-17T05:41:06.422Z,73.82
2022-08-17T05:42:06.348Z,73.61
2022-08-17T05:43:06.337Z,73.72
2022-08-17T05:44:06.334Z,72.19
2022-08-17T05:45:06.319Z,72.19
2022-08-17T05:46:06.295Z,71.98
2022-08-17T05:47:06.291Z,71.39
2022-08-17T05:48:06.284Z,70.59
2022-08-17T05:49:06.276Z,71.19
2022-08-17T05:50:09.848Z,70.99
2022-08-17T05:51:06.242Z,70.99
2022-08-17T05:52:06.315Z,71.35
2022-08-17T05:53:06.225Z,70.86
2022-08-17T05:54:06.206Z,70.86
2022-08-17T05:55:06.186Z,70.26
2022-08-17T05:56:06.168Z,70.26
2022-08-17T05:57:07.155Z,69.96
2022-08-17T05:58:06.151Z,70.16
2022-08-17T05:59:06.135Z,70.65
2022-08-17T06:00:06.227Z,70.36
2022-08-17T06:01:06.154Z,70.16
2022-08-17T06:02:06.120Z,70.42
2022-08-17T06:03:06.073Z,70.42
2022-08-17T06:04:06.100Z,69.73
2022-08-17T06:05:06.128Z,69.92
2022-08-17T06:06:06.068Z,70.22
2022-08-17T06:07:06.046Z,70.52
2022-08-17T06:08:14.792Z,69.82
2022-08-17T06:09:07.718Z,70.03
2022-08-17T06:10:08.697Z,69.29
2022-08-17T06:11:05.988Z,69.59
2022-08-17T06:12:05.979Z,69.20
2022-08-17T06:13:05.996Z,68.99
2022-08-17T06:14:05.954Z,68.30
2022-08-17T06:15:05.946Z,67.47
2022-08-17T06:16:25.866Z,67.07
2022-08-17T06:17:06.907Z,67.14
2022-08-17T06:18:05.924Z,67.83
2022-08-17T06:19:05.934Z,68.04
2022-08-17T06:20:06.329Z,68.53
2022-08-17T06:21:05.890Z,68.53
2022-08-17T06:22:05.850Z,68.30
2022-08-17T06:23:05.853Z,67.60
2022-08-17T06:24:05.835Z,67.60
2022-08-17T06:25:10.183Z,67.40
2022-08-17T06:26:06.817Z,67.30
2022-08-17T06:27:05.779Z,67.30
2022-08-17T06:28:05.861Z,67.80
2022-08-17T06:29:05.803Z,67.50
2022-08-17T06:30:05.747Z,67.40
2022-08-17T06:31:05.734Z,66.91
2022-08-17T06:32:05.726Z,67.07
2022-08-17T06:33:05.713Z,67.07
2022-08-17T06:34:05.702Z,67.37
2022-08-17T06:35:05.694Z,67.57
2022-08-17T06:36:09.550Z,66.48
2022-08-17T06:37:05.664Z,66.48
2022-08-17T06:38:05.664Z,65.98
2022-08-17T06:39:05.629Z,66.55
2022-08-17T06:40:05.768Z,66.44
2022-08-17T06:41:05.617Z,66.15
2022-08-17T06:42:05.599Z,66.05
2022-08-17T06:43:07.225Z,66.64
2022-08-17T06:44:05.571Z,65.65
2022-08-17T06:45:05.575Z,66.15
2022-08-17T06:46:06.266Z,66.02
2022-08-17T06:47:05.532Z,65.92
2022-08-17T06:48:05.527Z,65.92
2022-08-17T06:49:05.520Z,66.31
2022-08-17T06:50:05.671Z,65.12
2022-08-17T06:51:05.479Z,65.72
2022-08-17T06:52:05.486Z,65.92
2022-08-17T06:53:05.481Z,65.89
2022-08-17T06:54:05.448Z,64.99
2022-08-17T06:55:05.455Z,65.19
2022-08-17T06:56:05.458Z,64.79
2022-08-17T06:57:05.420Z,64.70
2022-08-17T06:58:16.207Z,64.76
2022-08-17T06:59:06.390Z,64.37
2022-08-17T07:00:05.446Z,64.27
2022-08-17T07:01:05.450Z,63.37
2022-08-17T07:02:05.358Z,62.48
2022-08-17T07:03:05.614Z,61.89
2022-08-17T07:04:05.367Z,61.16
2022-08-17T07:05:06.289Z,61.36
2022-08-17T07:06:05.304Z,62.05
2022-08-17T07:07:05.267Z,62.15
2022-08-17T07:08:05.270Z,61.13
2022-08-17T07:09:05.262Z,61.23
2022-08-17T07:10:05.291Z,60.74
2022-08-17T07:11:05.237Z,60.24
2022-08-17T07:12:05.228Z,60.24
2022-08-17T07:13:05.202Z,59.84
2022-08-17T07:14:05.178Z,58.46
2022-08-17T07:15:05.195Z,58.16
2022-08-17T07:16:05.205Z,57.57
2022-08-17T07:17:05.170Z,57.93
2022-08-17T07:18:05.261Z,57.93
2022-08-17T07:19:05.147Z,58.13
2022-08-17T07:20:05.236Z,59.03
2022-08-17T07:21:05.109Z,59.32
2022-08-17T07:22:05.115Z,58.43
2022-08-17T07:23:05.116Z,59.12
2022-08-17T07:24:05.100Z,58.83
2022-08-17T07:25:05.084Z,57.84
2022-08-17T07:26:05.111Z,58.43
2022-08-17T07:27:05.084Z,57.44
2022-08-17T07:28:07.335Z,57.84
2022-08-17T07:29:05.889Z,57.84
2022-08-17T07:30:10.094Z,57.90
2022-08-17T07:31:05.980Z,57.41
2022-08-17T07:32:04.980Z,58.11
2022-08-17T07:33:04.972Z,56.82
2022-08-17T07:34:04.949Z,57.39
2022-08-17T07:35:04.923Z,56.79
2022-08-17T07:36:04.905Z,56.49
2022-08-17T07:37:04.888Z,56.99
2022-08-17T07:38:04.899Z,55.80
2022-08-17T07:39:05.881Z,57.39
2022-08-17T07:40:16.078Z,56.99
2022-08-17T07:41:05.913Z,57.09
2022-08-17T07:42:04.850Z,56.00
2022-08-17T07:43:05.072Z,55.70
2022-08-17T07:44:04.799Z,56.27
2022-08-17T07:45:04.791Z,55.87
2022-08-17T07:46:04.848Z,56.37
2022-08-17T07:47:04.808Z,55.97
2022-08-17T07:48:04.764Z,56.37
2022-08-17T07:49:04.785Z,56.46
2022-08-17T07:50:04.727Z,55.65
2022-08-17T07:51:04.721Z,56.24
2022-08-17T07:52:24.070Z,55.75
2022-08-17T07:53:05.697Z,55.15
2022-08-17T07:54:14.572Z,54.86
2022-08-17T07:55:05.687Z,55.55
2022-08-17T07:56:04.670Z,56.44
2022-08-17T07:57:04.696Z,55.75
2022-08-17T07:58:04.695Z,55.94
2022-08-17T07:59:04.661Z,56.21
2022-08-17T08:00:04.621Z,56.12
2022-08-17T08:01:04.629Z,55.33
2022-08-17T08:02:05.360Z,55.22
2022-08-17T08:03:04.584Z,53.25
2022-08-17T08:04:04.567Z,51.37
2022-08-17T08:05:06.502Z,50.48
2022-08-17T08:06:04.569Z,50.66
2022-08-17T08:07:04.541Z,50.95
2022-08-17T08:08:04.539Z,50.66
2022-08-17T08:09:04.674Z,51.05
2022-08-17T08:10:04.542Z,50.07
2022-08-17T08:11:04.491Z,50.24
2022-08-17T08:12:04.499Z,49.25
2022-08-17T08:13:04.449Z,48.96
2022-08-17T08:14:04.458Z,49.25
2022-08-17T08:15:04.446Z,48.56
2022-08-17T08:16:04.431Z,49.25
2022-08-17T08:17:04.438Z,48.96
2022-08-17T08:18:04.396Z,48.36
2022-08-17T08:19:04.373Z,48.96
2022-08-17T08:20:37.921Z,48.44
2022-08-17T08:21:05.358Z,47.55
2022-08-17T08:22:04.410Z,47.45
2022-08-17T08:23:04.346Z,47.85
2022-08-17T08:24:04.352Z,47.75
2022-08-17T08:25:04.336Z,48.24
2022-08-17T08:26:04.319Z,48.14
2022-08-17T08:27:04.300Z,47.75
2022-08-17T08:28:04.268Z,47.85
2022-08-17T08:29:04.233Z,47.92
2022-08-17T08:30:04.315Z,48.71
2022-08-17T08:31:04.234Z,48.02
2022-08-17T08:32:04.306Z,47.53
2022-08-17T08:33:04.199Z,47.06
2022-08-17T08:34:04.251Z,47.25
2022-08-17T08:35:04.240Z,47.45
2022-08-17T08:36:04.204Z,47.75
2022-08-17T08:37:16.418Z,47.03
2022-08-17T08:38:05.149Z,47.13
2022-08-17T08:39:04.110Z,47.13
2022-08-17T08:40:04.163Z,47.03
2022-08-17T08:41:04.076Z,47.23
2022-08-17T08:42:04.092Z,47.11
2022-08-17T08:43:04.068Z,47.01
2022-08-17T08:44:04.090Z,46.52
2022-08-17T08:45:05.278Z,46.42
2022-08-17T08:46:04.039Z,46.12
2022-08-17T08:47:04.055Z,45.73
2022-08-17T08:48:05.384Z,46.62
2022-08-17T08:49:12.139Z,46.72
2022-08-17T08:50:05.873Z,46.62
2022-08-17T08:51:03.983Z,46.91
2022-08-17T08:52:04.062Z,46.91
2022-08-17T08:53:03.933Z,46.42
2022-08-17T08:54:03.943Z,45.34
2022-08-17T08:55:03.921Z,45.14
2022-08-17T08:56:03.913Z,45.63
2022-08-17T08:58:04.866Z,43.93
2022-08-17T08:59:03.867Z,44.03
2022-08-17T09:00:03.887Z,45.61
2022-08-17T09:01:03.938Z,44.43
2022-08-17T09:02:03.839Z,44.43
2022-08-17T09:03:03.802Z,44.43
2022-08-17T09:04:21.393Z,44.53
2022-08-17T09:05:18.314Z,44.23
2022-08-17T09:06:04.797Z,44.23
2022-08-17T09:07:04.809Z,44.82
2022-08-17T09:08:03.783Z,44.82
2022-08-17T09:09:03.729Z,45.12
2022-08-17T09:10:03.734Z,44.72
2022-08-17T09:11:03.727Z,44.82
2022-08-17T09:12:04.363Z,45.61
2022-08-17T09:13:09.948Z,45.71
2022-08-17T09:14:04.700Z,45.88
2022-08-17T09:15:03.670Z,45.39
2022-08-17T09:16:03.659Z,44.40
2022-08-17T09:17:03.649Z,44.23
2022-08-17T09:19:00.954Z,44.60
2022-08-17T09:19:05.267Z,44.70
2022-08-17T09:20:03.623Z,45.39
2022-08-17T09:21:03.588Z,44.90
2022-08-17T09:22:03.585Z,44.31
2022-08-17T09:23:03.597Z,44.31
2022-08-17T09:24:03.546Z,44.21
2022-08-17T09:25:03.554Z,43.70
2022-08-17T09:26:03.534Z,43.99
2022-08-17T09:27:03.548Z,43.40
2022-08-17T09:28:03.520Z,43.70
2022-08-17T09:29:03.494Z,43.10
2022-08-17T09:30:03.484Z,43.62
2022-08-17T09:31:03.485Z,43.91
2022-08-17T09:32:03.459Z,44.11
2022-08-17T09:33:03.486Z,44.21
2022-08-17T09:34:03.419Z,43.82
2022-08-17T09:35:03.436Z,44.01
2022-08-17T09:36:03.401Z,44.11
2022-08-17T09:37:03.413Z,43.50
2022-08-17T09:38:03.889Z,42.61
2022-08-17T09:39:03.384Z,42.61
2022-08-17T09:40:03.416Z,42.71
2022-08-17T09:41:03.387Z,42.49
2022-08-17T09:42:03.334Z,43.97
2022-08-17T09:43:03.338Z,43.48
2022-08-17T09:44:03.301Z,43.68
2022-08-17T09:45:03.311Z,43.38
2022-08-17T09:46:05.298Z,43.28
2022-08-17T09:47:03.297Z,43.36
2022-08-17T09:48:03.272Z,43.85
2022-08-17T09:49:03.284Z,44.05
2022-08-17T09:50:03.421Z,43.95
2022-08-17T09:51:06.580Z,43.85
2022-08-17T09:52:03.204Z,43.75
2022-08-17T09:53:03.245Z,43.95
2022-08-17T09:54:34.767Z,44.22
2022-08-17T09:55:04.169Z,43.24
2022-08-17T09:56:03.166Z,43.73
2022-08-17T09:57:28.072Z,43.73
2022-08-17T09:58:04.125Z,44.22
2022-08-17T09:59:03.109Z,43.24
2022-08-17T10:00:03.106Z,43.80
2022-08-17T10:01:03.230Z,42.53
2022-08-17T10:02:03.094Z,43.41
2022-08-17T10:03:03.092Z,42.24
2022-08-17T10:04:03.047Z,43.41
2022-08-17T10:05:03.032Z,42.33
2022-08-17T10:06:03.041Z,42.80
2022-08-17T10:07:03.027Z,41.55
2022-08-17T10:08:03.025Z,42.04
2022-08-17T10:09:02.991Z,41.64
2022-08-17T10:10:02.967Z,41.84
2022-08-17T10:11:02.972Z,41.55
2022-08-17T10:12:02.958Z,41.25
2022-08-17T10:13:02.965Z,41.35
2022-08-17T10:14:02.930Z,41.35
2022-08-17T10:15:07.759Z,42.51
2022-08-17T10:16:03.913Z,41.45
2022-08-17T10:17:02.945Z,41.94
2022-08-17T10:18:02.888Z,41.25
2022-08-17T10:19:02.888Z,42.11
2022-08-17T10:20:02.847Z,41.92
2022-08-17T10:21:02.852Z,42.14
2022-08-17T10:22:14.927Z,40.56
2022-08-17T10:23:03.866Z,41.25
2022-08-17T10:24:02.804Z,40.78
2022-08-17T10:25:23.609Z,40.98
2022-08-17T10:26:03.783Z,40.56
2022-08-17T10:27:02.753Z,40.08
2022-08-17T10:28:02.762Z,39.58
2022-08-17T10:29:02.748Z,39.98
2022-08-17T10:30:02.734Z,40.47
2022-08-17T10:31:33.182Z,40.27
2022-08-17T10:32:03.760Z,39.98
2022-08-17T10:33:02.704Z,39.48
2022-08-17T10:34:02.716Z,39.78
2022-08-17T10:35:02.677Z,39.78
2022-08-17T10:36:06.294Z,40.27
2022-08-17T10:37:03.678Z,40.55
2022-08-17T10:38:03.232Z,41.03
2022-08-17T10:39:02.622Z,40.55
2022-08-17T10:40:02.773Z,40.06
2022-08-17T10:41:02.606Z,39.47
2022-08-17T10:42:02.575Z,40.06
2022-08-17T10:43:02.608Z,38.88
2022-08-17T10:44:38.932Z,39.29
2022-08-17T10:45:03.571Z,39.09
2022-08-17T10:46:27.683Z,39.19
2022-08-17T10:47:03.507Z,39.39
2022-08-17T10:48:05.862Z,39.19
2022-08-17T10:49:02.516Z,38.90
2022-08-17T10:50:02.474Z,39.39
2022-08-17T10:51:02.810Z,39.98
2022-08-17T10:52:02.474Z,39.68
2022-08-17T10:53:02.889Z,39.40
2022-08-17T10:54:02.418Z,39.19
2022-08-17T10:55:02.436Z,40.27
2022-08-17T10:56:02.443Z,40.17
2022-08-17T10:57:02.454Z,40.17
2022-08-17T10:58:02.440Z,40.17
2022-08-17T10:59:02.568Z,40.45
2022-08-17T11:00:02.348Z,39.68
2022-08-17T11:01:02.502Z,39.47
2022-08-17T11:02:02.345Z,40.16
2022-08-17T11:03:02.351Z,39.76
2022-08-17T11:04:02.318Z,40.03
2022-08-17T11:05:02.309Z,39.84
2022-08-17T11:06:02.297Z,39.84
2022-08-17T11:07:02.276Z,39.35
2022-08-17T11:08:02.341Z,38.85
2022-08-17T11:09:02.268Z,39.45
2022-08-17T11:10:02.279Z,39.54
2022-08-17T11:11:02.212Z,39.74
2022-08-17T11:12:02.219Z,39.94
2022-08-17T11:13:02.242Z,39.74
2022-08-17T11:14:02.220Z,40.13
2022-08-17T11:15:02.160Z,40.13
2022-08-17T11:16:07.694Z,40.01
2022-08-17T11:17:03.129Z,41.21
2022-08-17T11:18:02.146Z,41.21
2022-08-17T11:19:02.134Z,40.03
2022-08-17T11:20:02.098Z,40.72
2022-08-17T11:21:02.100Z,39.35
2022-08-17T11:22:02.095Z,39.06
2022-08-17T11:23:02.095Z,38.58
2022-08-17T11:24:02.054Z,39.66
2022-08-17T11:25:02.053Z,39.35
2022-08-17T11:26:02.162Z,39.07
2022-08-17T11:27:02.018Z,39.17
2022-08-17T11:28:02.050Z,39.37
2022-08-17T11:29:02.065Z,38.98
2022-08-17T11:30:02.862Z,38.98
2022-08-17T11:31:01.988Z,38.96
2022-08-17T11:32:01.951Z,38.85
2022-08-17T11:33:02.006Z,38.96
2022-08-17T11:34:02.952Z,38.96
2022-08-17T11:35:01.949Z,38.66
2022-08-17T11:36:01.905Z,38.56
2022-08-17T11:37:01.946Z,38.85
2022-08-17T11:38:01.900Z,37.96
2022-08-17T11:39:01.942Z,37.96
2022-08-17T11:40:01.956Z,38.25
2022-08-17T11:41:01.890Z,38.23
2022-08-17T11:42:01.830Z,38.13
2022-08-17T11:43:01.951Z,38.60
2022-08-17T11:44:01.912Z,38.70
2022-08-17T11:45:01.798Z,39.07
2022-08-17T11:46:01.827Z,39.27
2022-08-17T11:47:01.789Z,39.07
2022-08-17T11:48:26.704Z,38.59
2022-08-17T11:49:02.817Z,37.31
2022-08-17T11:50:01.751Z,36.94
2022-08-17T11:51:01.740Z,36.37
2022-08-17T11:52:01.794Z,36.96
2022-08-17T11:53:01.741Z,36.76
2022-08-17T11:54:28.967Z,36.58
2022-08-17T11:55:31.505Z,36.58
2022-08-17T11:56:02.655Z,36.78
2022-08-17T11:57:01.652Z,37.68
2022-08-17T11:58:01.764Z,38.17
2022-08-17T11:59:01.656Z,38.17
2022-08-17T12:00:01.612Z,38.27
2022-08-17T12:01:01.619Z,37.76
2022-08-17T12:02:01.583Z,37.66
2022-08-17T12:03:01.593Z,37.96
2022-08-17T12:04:01.620Z,37.94
2022-08-17T12:05:01.557Z,38.13
2022-08-17T12:06:01.556Z,37.92
2022-08-17T12:07:01.562Z,37.90
2022-08-17T12:08:01.511Z,38.10
2022-08-17T12:09:08.591Z,37.12
2022-08-17T12:10:04.269Z,37.63
2022-08-17T12:11:07.099Z,37.92
2022-08-17T12:12:13.071Z,38.10
2022-08-17T12:13:02.459Z,37.41
2022-08-17T12:14:01.461Z,37.21
2022-08-17T12:15:16.734Z,37.31
2022-08-17T12:16:02.409Z,37.12
2022-08-17T12:17:01.408Z,36.55
2022-08-17T12:18:01.381Z,37.43
2022-08-17T12:19:01.398Z,37.13
2022-08-17T12:20:01.378Z,37.41
2022-08-17T12:21:01.363Z,37.02
2022-08-17T12:22:01.354Z,36.92
2022-08-17T12:23:01.488Z,36.72
2022-08-17T12:24:01.340Z,36.92
2022-08-17T12:25:01.335Z,36.72
2022-08-17T12:26:02.045Z,36.24
2022-08-17T12:27:01.286Z,36.55
2022-08-17T12:28:06.237Z,36.84
2022-08-17T12:29:02.265Z,36.96
2022-08-17T12:30:01.240Z,36.86
2022-08-17T12:31:01.238Z,37.15
2022-08-17T12:32:01.223Z,37.45
2022-08-17T12:33:01.210Z,37.84
2022-08-17T12:34:01.222Z,36.66
2022-08-17T12:35:01.169Z,37.07
2022-08-17T12:36:01.162Z,37.37
2022-08-17T12:37:01.167Z,37.09
2022-08-17T12:38:01.143Z,37.19
2022-08-17T12:39:13.786Z,37.38
2022-08-17T12:40:02.189Z,37.88
2022-08-17T12:41:01.122Z,38.46
2022-08-17T12:42:02.696Z,38.06
2022-08-17T12:43:01.092Z,37.37
2022-08-17T12:44:01.079Z,38.04
2022-08-17T12:45:01.061Z,36.96
2022-08-17T12:46:01.225Z,36.37
2022-08-17T12:47:02.036Z,36.65
2022-08-17T12:48:01.017Z,37.04
2022-08-17T12:49:01.026Z,37.04
2022-08-17T12:50:00.992Z,36.84
2022-08-17T12:51:00.986Z,36.65
2022-08-17T12:52:00.972Z,35.27
2022-08-17T12:53:02.509Z,35.27